Overview Statistics Trail Chart Weather Telemetry Raw packets
 

This is the latest recevied weather packets stored in our database for station/object KG4GJX. If no packets are shown the sender has not sent any weather packets the latest 10 day(s).

<< 19 20 21 22 23 24 25 >>
Time Temp. Humidity Pressure Rain* Wind** Luminosity Snow
1788219476 30.56° C 68% 1019.6 hPa 0 mm - - -
1788218813 32.22° C 60% 1019.6 hPa 0 mm - - -
1788218150 32.78° C 56% 1019.9 hPa 0 mm - - -
1788217488 33.89° C 55% 1019.9 hPa 0 mm - - -
1788216825 35° C 51% 1019.9 hPa 0 mm - - -
1788215502 36.11° C 48% 1019.9 hPa 0 mm - - -
1788214840 36.11° C 46% 1019.9 hPa 0 mm - - -
1788214177 36.11° C 46% 1019.9 hPa 0 mm - - -
1788213515 36.11° C 49% 1019.9 hPa 0 mm - - -
1788212852 36.11° C 44% 1019.9 hPa 0 mm - - -
1788212189 36.11° C 45% 1019.9 hPa 0 mm - - -
1788211527 35.56° C 43% 1019.9 hPa 0 mm - - -
1788210864 35° C 45% 1020.3 hPa 0 mm - - -
1788210201 35° C 47% 1020.3 hPa 0 mm - - -
1788209539 34.44° C 50% 1020.3 hPa 0 mm - - -
1788208876 34.44° C 47% 1020.3 hPa 0 mm - - -
1788208214 35.56° C 45% 1020.3 hPa 0 mm - - -
1788207552 35° C 48% 1020.6 hPa 0 mm - - -
1788206889 34.44° C 46% 1020.6 hPa 0 mm - - -
1788206227 34.44° C 46% 1020.6 hPa 0 mm - - -
1788205564 34.44° C 54% 1020.9 hPa 0 mm - - -
1788204902 34.44° C 49% 1020.9 hPa 0 mm - - -
1788204239 33.89° C 51% 1020.9 hPa 0 mm - - -
1788203577 33.89° C 53% 1021.3 hPa 0 mm - - -
1788202914 33.33° C 51% 1021.3 hPa 0 mm - - -

* Rain latest hour (hover to see other rain measurements)
** Current wind speed in m/s (hover to see current wind gust speed)